createdAt,value
2023-02-14T00:01:11.394Z,2.80
2023-02-14T00:03:38.406Z,2.10
2023-02-14T00:06:09.846Z,2.50
2023-02-14T00:08:36.961Z,3.30
2023-02-14T00:11:04.961Z,2.40
2023-02-14T00:13:31.927Z,2.20
2023-02-14T00:15:58.900Z,2.40
2023-02-14T00:18:45.299Z,2.30
2023-02-14T00:21:12.066Z,2.00
2023-02-14T00:23:39.094Z,2.60
2023-02-14T00:26:13.677Z,2.60
2023-02-14T00:28:42.100Z,2.50
2023-02-14T00:31:08.994Z,2.10
2023-02-14T00:33:37.620Z,2.30
2023-02-14T00:36:09.988Z,2.10
2023-02-14T00:38:42.652Z,2.30
2023-02-14T00:41:18.676Z,2.50
2023-02-14T00:43:50.661Z,1.80
2023-02-14T00:46:18.930Z,2.50
2023-02-14T00:48:46.128Z,2.30
2023-02-14T00:51:14.331Z,2.40
2023-02-14T00:53:42.838Z,2.10
2023-02-14T00:56:09.560Z,2.70
2023-02-14T00:58:36.303Z,2.60
2023-02-14T01:01:03.433Z,2.30
2023-02-14T01:03:30.302Z,2.70
2023-02-14T01:05:57.285Z,2.90
2023-02-14T01:08:24.691Z,2.50
2023-02-14T01:10:51.549Z,3.30
2023-02-14T01:13:19.168Z,2.00
2023-02-14T01:15:48.399Z,2.80
2023-02-14T01:18:16.818Z,3.00
2023-02-14T01:20:43.876Z,2.40
2023-02-14T01:23:11.042Z,2.40
2023-02-14T01:25:39.396Z,3.20
2023-02-14T01:28:06.663Z,2.40
2023-02-14T01:30:33.451Z,3.70
2023-02-14T01:33:00.039Z,2.60
2023-02-14T01:35:26.825Z,3.00
2023-02-14T01:37:54.072Z,2.70
2023-02-14T01:40:20.933Z,2.70
2023-02-14T01:42:47.619Z,3.10
2023-02-14T01:45:18.737Z,3.20
2023-02-14T01:47:51.449Z,3.10
2023-02-14T01:50:25.521Z,3.20
2023-02-14T01:53:07.288Z,3.80
2023-02-14T01:55:41.613Z,3.30
2023-02-14T01:58:18.424Z,3.40
2023-02-14T02:00:58.371Z,3.00
2023-02-14T02:03:34.720Z,2.70
2023-02-14T02:06:10.875Z,2.90
2023-02-14T02:08:48.183Z,3.10
2023-02-14T02:11:14.836Z,3.40
2023-02-14T02:13:41.604Z,3.50
2023-02-14T02:16:18.271Z,3.60
2023-02-14T02:18:56.973Z,3.80
2023-02-14T02:21:44.091Z,3.90
2023-02-14T02:24:25.148Z,3.50
2023-02-14T02:27:08.511Z,2.70
2023-02-14T02:29:44.494Z,3.40
2023-02-14T02:32:11.366Z,2.60
2023-02-14T02:35:09.617Z,3.10
2023-02-14T02:37:39.373Z,3.80
2023-02-14T02:40:20.131Z,3.70
2023-02-14T02:43:08.128Z,3.60
2023-02-14T02:46:13.920Z,3.80
2023-02-14T02:49:43.338Z,3.20
2023-02-14T02:53:01.321Z,2.80
2023-02-14T02:55:57.394Z,3.80
2023-02-14T02:58:30.884Z,3.30
2023-02-14T03:01:00.601Z,3.50
2023-02-14T03:03:50.662Z,3.80
2023-02-14T03:06:17.415Z,3.60
2023-02-14T03:08:45.165Z,2.90
2023-02-14T03:11:12.576Z,4.20
2023-02-14T03:14:01.533Z,4.20
2023-02-14T03:16:54.593Z,3.60
2023-02-14T03:20:01.611Z,3.90
2023-02-14T03:22:43.002Z,4.30
2023-02-14T03:25:34.813Z,3.80
2023-02-14T03:28:26.802Z,3.50
2023-02-14T03:31:03.305Z,4.00
2023-02-14T03:33:42.906Z,4.00
2023-02-14T03:36:20.886Z,4.20
2023-02-14T03:39:00.832Z,4.30
2023-02-14T03:41:35.334Z,3.60
2023-02-14T03:44:06.206Z,3.60
2023-02-14T03:46:42.226Z,3.90
2023-02-14T03:49:15.816Z,3.60
2023-02-14T03:51:47.549Z,4.40
2023-02-14T03:54:16.640Z,3.60
2023-02-14T03:56:51.460Z,4.10
2023-02-14T03:59:24.258Z,4.00
2023-02-14T04:02:06.729Z,4.30
2023-02-14T04:04:38.033Z,3.60
2023-02-14T04:07:23.287Z,4.60
2023-02-14T04:09:50.957Z,4.00
2023-02-14T04:12:24.007Z,4.40
2023-02-14T04:14:59.445Z,5.20
2023-02-14T04:17:44.788Z,4.30
2023-02-14T04:20:12.098Z,4.60
2023-02-14T04:22:38.813Z,4.00
2023-02-14T04:25:05.528Z,5.70
2023-02-14T04:27:32.801Z,5.30
2023-02-14T04:29:59.380Z,4.70
2023-02-14T04:32:26.219Z,5.20
2023-02-14T04:34:53.412Z,4.80
2023-02-14T04:37:20.223Z,4.90
2023-02-14T04:39:46.791Z,5.30
2023-02-14T04:42:14.202Z,5.00
2023-02-14T04:44:41.147Z,4.70
2023-02-14T04:47:08.386Z,4.90
2023-02-14T04:49:35.950Z,5.40
2023-02-14T04:52:04.009Z,5.20
2023-02-14T04:54:30.885Z,5.70
2023-02-14T04:56:57.691Z,5.80
2023-02-14T04:59:25.163Z,5.80
2023-02-14T05:01:52.564Z,5.40
2023-02-14T05:04:19.611Z,6.10
2023-02-14T05:06:46.466Z,5.40
2023-02-14T05:09:13.424Z,5.60
2023-02-14T05:11:40.296Z,6.20
2023-02-14T05:14:07.353Z,5.70
2023-02-14T05:16:33.909Z,5.60
2023-02-14T05:19:01.283Z,6.60
2023-02-14T05:21:28.249Z,7.40
2023-02-14T05:23:54.788Z,6.60
2023-02-14T05:26:21.958Z,6.70
2023-02-14T05:28:48.586Z,7.20
2023-02-14T05:31:15.359Z,6.20
2023-02-14T05:33:42.359Z,5.60
2023-02-14T05:36:19.076Z,6.30
2023-02-14T05:38:45.860Z,6.00
2023-02-14T05:41:12.806Z,6.40
2023-02-14T05:43:39.386Z,6.60
2023-02-14T05:46:07.545Z,7.00
2023-02-14T05:48:34.292Z,7.60
2023-02-14T05:51:16.734Z,6.30
2023-02-14T05:53:43.570Z,6.20
2023-02-14T05:56:10.183Z,5.60
2023-02-14T05:58:36.884Z,5.30
2023-02-14T06:01:03.825Z,6.50
2023-02-14T06:03:30.434Z,6.30
2023-02-14T06:05:57.178Z,6.50
2023-02-14T06:08:24.020Z,6.60
2023-02-14T06:10:50.603Z,7.80
2023-02-14T06:13:17.333Z,8.40
2023-02-14T06:15:44.165Z,8.20
2023-02-14T06:18:10.758Z,8.50
2023-02-14T06:20:37.536Z,6.40
2023-02-14T06:23:04.293Z,5.60
2023-02-14T06:25:31.066Z,6.60
2023-02-14T06:27:58.978Z,6.80
2023-02-14T06:30:26.555Z,7.70
2023-02-14T06:32:53.509Z,8.80
2023-02-14T06:35:20.242Z,8.00
2023-02-14T06:37:46.986Z,7.00
2023-02-14T06:40:14.176Z,7.10
2023-02-14T06:42:41.160Z,7.10
2023-02-14T06:45:08.564Z,7.10
2023-02-14T06:47:35.494Z,6.90
2023-02-14T06:50:04.652Z,7.20
2023-02-14T06:52:34.032Z,9.00
2023-02-14T06:55:00.657Z,8.60
2023-02-14T06:57:27.673Z,8.50
2023-02-14T06:59:54.433Z,8.40
2023-02-14T07:02:24.346Z,7.30
2023-02-14T07:04:51.763Z,7.40
2023-02-14T07:07:18.543Z,7.70
2023-02-14T07:09:45.224Z,6.80
2023-02-14T07:12:12.093Z,8.00
2023-02-14T07:14:38.891Z,8.10
2023-02-14T07:17:05.630Z,7.70
2023-02-14T07:19:32.636Z,7.20
2023-02-14T07:21:59.402Z,8.40
2023-02-14T07:24:26.254Z,8.30
2023-02-14T07:26:53.364Z,8.00
2023-02-14T07:29:20.198Z,7.60
2023-02-14T07:31:46.922Z,8.80
2023-02-14T07:34:15.183Z,7.90
2023-02-14T07:36:43.557Z,9.10
2023-02-14T07:39:10.320Z,9.60
2023-02-14T07:41:37.672Z,8.80
2023-02-14T07:44:04.681Z,9.00
2023-02-14T07:46:31.524Z,7.50
2023-02-14T07:48:58.481Z,9.00
2023-02-14T07:51:25.225Z,8.40
2023-02-14T07:53:51.778Z,7.70
2023-02-14T07:56:18.479Z,7.30
2023-02-14T07:58:46.275Z,8.20
2023-02-14T08:01:13.012Z,7.40
2023-02-14T08:03:39.942Z,8.20
2023-02-14T08:06:06.772Z,6.70
2023-02-14T08:08:33.411Z,6.90
2023-02-14T08:11:00.379Z,6.00
2023-02-14T08:13:27.533Z,6.60
2023-02-14T08:16:08.997Z,7.40
2023-02-14T08:18:40.698Z,6.40
2023-02-14T08:21:10.559Z,8.20
2023-02-14T08:23:38.121Z,6.80
2023-02-14T08:26:05.447Z,8.30
2023-02-14T08:28:32.831Z,7.10
2023-02-14T08:31:02.268Z,8.20
2023-02-14T08:33:29.202Z,7.30
2023-02-14T08:36:09.920Z,8.20
2023-02-14T08:38:40.977Z,6.90
2023-02-14T08:41:12.046Z,7.20
2023-02-14T08:43:45.175Z,7.90
2023-02-14T08:46:20.171Z,6.50
2023-02-14T08:48:47.017Z,8.20
2023-02-14T08:51:22.872Z,8.70
2023-02-14T08:54:46.743Z,7.50
2023-02-14T08:57:15.041Z,7.80
2023-02-14T08:59:41.810Z,7.00
2023-02-14T09:02:16.367Z,8.30
2023-02-14T09:04:46.531Z,9.30
2023-02-14T09:07:14.226Z,8.60
2023-02-14T09:09:42.750Z,8.00
2023-02-14T09:12:12.463Z,7.20
2023-02-14T09:14:43.570Z,9.70
2023-02-14T09:17:14.869Z,7.70
2023-02-14T09:19:42.262Z,9.00
2023-02-14T09:22:11.355Z,9.10
2023-02-14T09:24:42.303Z,9.90
2023-02-14T09:27:09.930Z,9.60
2023-02-14T09:29:36.654Z,8.60
2023-02-14T09:32:04.595Z,9.50
2023-02-14T09:34:40.634Z,9.50
2023-02-14T09:37:29.486Z,9.50
2023-02-14T09:39:56.368Z,9.60
2023-02-14T09:43:11.369Z,10.80
2023-02-14T09:45:38.849Z,9.60
2023-02-14T09:48:37.453Z,10.20
2023-02-14T09:51:14.956Z,9.30
2023-02-14T09:53:54.205Z,9.60
2023-02-14T09:56:50.666Z,9.20
2023-02-14T09:59:25.268Z,9.50
2023-02-14T10:02:05.479Z,11.10
2023-02-14T10:04:50.841Z,10.30
2023-02-14T10:07:39.686Z,10.20
2023-02-14T10:10:43.870Z,10.10
2023-02-14T10:13:29.641Z,10.40
2023-02-14T10:16:09.109Z,10.40
2023-02-14T10:19:03.455Z,7.30
2023-02-14T10:21:41.957Z,7.80
2023-02-14T10:24:28.345Z,6.20
2023-02-14T10:27:02.491Z,8.30
2023-02-14T10:29:32.274Z,10.10
2023-02-14T10:32:01.939Z,10.00
2023-02-14T10:34:50.772Z,9.00
2023-02-14T10:37:40.565Z,10.50
2023-02-14T10:40:32.760Z,10.10
2023-02-14T10:43:36.935Z,9.70
2023-02-14T10:46:31.993Z,9.30
2023-02-14T10:49:41.183Z,9.20
2023-02-14T10:52:13.993Z,10.60
2023-02-14T10:54:51.726Z,10.00
2023-02-14T10:57:42.083Z,8.30
2023-02-14T11:00:12.245Z,10.80
2023-02-14T11:02:42.894Z,9.80
2023-02-14T11:05:23.147Z,10.90
2023-02-14T11:07:51.816Z,10.70
2023-02-14T11:10:23.662Z,11.60
2023-02-14T11:12:50.369Z,10.50
2023-02-14T11:15:22.957Z,10.90
2023-02-14T11:18:06.727Z,10.90
2023-02-14T11:20:33.576Z,9.30
2023-02-14T11:23:00.353Z,11.30
2023-02-14T11:25:30.724Z,9.70
2023-02-14T11:28:01.369Z,9.70
2023-02-14T11:30:36.528Z,9.10
2023-02-14T11:33:04.785Z,9.20
2023-02-14T11:35:36.518Z,9.90
2023-02-14T11:40:55.212Z,10.10
2023-02-14T11:43:43.476Z,10.00
2023-02-14T11:46:20.106Z,8.70
2023-02-14T11:48:59.832Z,10.10
2023-02-14T11:51:31.094Z,9.40
2023-02-14T11:54:03.607Z,9.40
2023-02-14T11:56:47.996Z,9.70
2023-02-14T11:59:26.888Z,9.20
2023-02-14T12:01:57.644Z,10.10
2023-02-14T12:04:46.086Z,8.70
2023-02-14T12:07:21.563Z,8.80
2023-02-14T12:10:05.047Z,9.00
2023-02-14T12:12:32.682Z,9.50
2023-02-14T12:15:46.756Z,10.90
2023-02-14T12:18:48.513Z,9.70
2023-02-14T12:21:54.034Z,10.20
2023-02-14T12:24:35.948Z,10.80
2023-02-14T12:27:25.512Z,9.30
2023-02-14T12:29:59.959Z,11.10
2023-02-14T12:32:29.651Z,9.70
2023-02-14T12:35:15.551Z,9.10
2023-02-14T12:38:10.615Z,9.00
2023-02-14T12:41:02.662Z,9.60
2023-02-14T12:47:21.775Z,8.70
2023-02-14T12:50:21.070Z,8.40
2023-02-14T12:52:56.211Z,8.70
2023-02-14T12:55:34.739Z,9.10
2023-02-14T12:58:39.697Z,9.30
2023-02-14T13:01:29.251Z,8.50
2023-02-14T13:04:21.241Z,9.10
2023-02-14T13:07:05.270Z,7.70
2023-02-14T13:09:47.179Z,8.60
2023-02-14T13:12:35.849Z,7.70
2023-02-14T13:15:12.093Z,8.20
2023-02-14T13:18:20.438Z,8.20
2023-02-14T13:20:50.064Z,9.00
2023-02-14T13:23:25.124Z,8.20
2023-02-14T13:26:18.688Z,8.00
2023-02-14T13:29:09.906Z,9.10
2023-02-14T13:31:38.096Z,8.00
2023-02-14T13:34:23.345Z,10.00
2023-02-14T13:36:50.459Z,9.70
2023-02-14T13:39:38.737Z,7.90
2023-02-14T13:42:07.014Z,7.20
2023-02-14T13:44:43.344Z,8.50
2023-02-14T13:47:27.202Z,8.70
2023-02-14T13:50:02.272Z,9.00
2023-02-14T13:52:48.197Z,8.80
2023-02-14T13:55:24.840Z,8.30
2023-02-14T13:58:03.598Z,8.30
2023-02-14T14:00:42.388Z,8.60
2023-02-14T14:03:25.654Z,8.80
2023-02-14T14:06:02.150Z,8.60
2023-02-14T14:08:38.182Z,8.60
2023-02-14T14:11:11.295Z,8.50
2023-02-14T14:13:41.455Z,7.70
2023-02-14T14:16:23.811Z,9.10
2023-02-14T14:18:53.398Z,8.10
2023-02-14T14:21:24.881Z,9.10
2023-02-14T14:24:14.585Z,9.40
2023-02-14T14:26:45.643Z,9.70
2023-02-14T14:29:22.749Z,9.80
2023-02-14T14:31:54.909Z,9.90
2023-02-14T14:34:26.222Z,10.20
2023-02-14T14:37:04.417Z,9.90
2023-02-14T14:39:33.893Z,9.20
2023-02-14T14:42:14.705Z,10.30
2023-02-14T14:44:51.428Z,9.60
2023-02-14T14:47:23.848Z,9.20
2023-02-14T14:49:54.435Z,9.50
2023-02-14T14:52:41.350Z,8.80
2023-02-14T14:55:19.593Z,9.50
2023-02-14T14:57:51.638Z,10.50
2023-02-14T15:00:41.724Z,10.20
2023-02-14T15:03:14.277Z,9.80
2023-02-14T15:05:47.578Z,10.70
2023-02-14T15:08:15.310Z,11.70
2023-02-14T15:10:42.925Z,10.80
2023-02-14T15:13:32.452Z,10.90
2023-02-14T15:16:02.209Z,10.00
2023-02-14T15:18:30.321Z,10.20
2023-02-14T15:20:59.048Z,12.00
2023-02-14T15:23:26.100Z,10.90
2023-02-14T15:25:52.781Z,12.30
2023-02-14T15:28:53.567Z,12.50
2023-02-14T15:31:21.077Z,12.20
2023-02-14T15:33:47.985Z,12.40
2023-02-14T15:36:24.764Z,11.40
2023-02-14T15:38:53.700Z,9.40
2023-02-14T15:41:20.536Z,10.70
2023-02-14T15:43:53.923Z,11.00
2023-02-14T15:46:24.077Z,11.70
2023-02-14T15:48:51.610Z,10.80
2023-02-14T15:51:35.899Z,12.70
2023-02-14T15:54:07.022Z,15.00
2023-02-14T15:56:44.351Z,13.80
2023-02-14T15:59:25.949Z,14.10
2023-02-14T16:02:02.941Z,12.50
2023-02-14T16:04:33.341Z,12.70
2023-02-14T16:07:18.987Z,15.50
2023-02-14T16:09:50.800Z,15.80
2023-02-14T16:12:35.081Z,12.30
2023-02-14T16:15:10.042Z,11.80
2023-02-14T16:17:36.760Z,12.10
2023-02-14T16:20:35.751Z,12.40
2023-02-14T16:23:14.579Z,12.20
2023-02-14T16:25:42.361Z,12.60
2023-02-14T16:28:20.209Z,12.90
2023-02-14T16:30:58.803Z,12.90
2023-02-14T16:33:32.411Z,12.30
2023-02-14T16:36:27.515Z,12.00
2023-02-14T16:38:55.438Z,11.40
2023-02-14T16:41:27.733Z,11.00
2023-02-14T16:43:56.227Z,11.20
2023-02-14T16:46:28.004Z,11.70
2023-02-14T16:48:55.245Z,11.40
2023-02-14T16:51:24.634Z,11.80
2023-02-14T16:53:53.226Z,11.10
2023-02-14T16:56:25.602Z,12.30
2023-02-14T16:58:52.485Z,11.50
2023-02-14T17:01:19.270Z,11.40
2023-02-14T17:03:46.229Z,12.80
2023-02-14T17:06:16.660Z,12.40
2023-02-14T17:08:45.569Z,12.10
2023-02-14T17:11:12.498Z,14.10
2023-02-14T17:13:42.003Z,14.80
2023-02-14T17:16:12.431Z,14.30
2023-02-14T17:18:41.625Z,13.20
2023-02-14T17:21:08.993Z,12.00
2023-02-14T17:23:35.836Z,13.10
2023-02-14T17:26:03.490Z,13.10
2023-02-14T17:28:30.118Z,13.00
2023-02-14T17:30:59.394Z,11.30
2023-02-14T17:33:30.526Z,12.00
2023-02-14T17:36:07.213Z,13.30
2023-02-14T17:38:40.951Z,16.60
2023-02-14T17:41:13.247Z,17.30
2023-02-14T17:43:40.179Z,15.80
2023-02-14T17:46:07.352Z,16.10
2023-02-14T17:48:34.318Z,16.00
2023-02-14T17:51:09.005Z,15.40
2023-02-14T17:53:35.916Z,14.60
2023-02-14T17:56:17.297Z,14.80
2023-02-14T17:58:47.094Z,13.70
2023-02-14T18:01:17.603Z,12.60
2023-02-14T18:03:44.428Z,13.90
2023-02-14T18:06:13.882Z,13.20
2023-02-14T18:08:51.335Z,12.20
2023-02-14T18:11:20.008Z,11.40
2023-02-14T18:13:47.329Z,13.10
2023-02-14T18:16:17.367Z,11.00
2023-02-14T18:18:44.850Z,13.20
2023-02-14T18:21:14.473Z,13.10
2023-02-14T18:23:41.670Z,12.30
2023-02-14T18:26:13.908Z,12.80
2023-02-14T18:28:41.094Z,12.70
2023-02-14T18:31:14.303Z,12.60
2023-02-14T18:33:41.061Z,12.20
2023-02-14T18:36:13.593Z,13.10
2023-02-14T18:38:43.174Z,12.30
2023-02-14T18:41:13.753Z,13.80
2023-02-14T18:43:41.184Z,13.20
2023-02-14T18:46:12.099Z,15.90
2023-02-14T18:48:39.846Z,13.30
2023-02-14T18:51:12.437Z,16.60
2023-02-14T18:53:40.632Z,20.30
2023-02-14T18:56:16.277Z,22.10
2023-02-14T18:58:50.401Z,17.00
2023-02-14T19:01:22.546Z,20.60
2023-02-14T19:03:52.272Z,16.70
2023-02-14T19:06:20.224Z,15.60
2023-02-14T19:08:47.721Z,16.30
2023-02-14T19:11:17.845Z,16.70
2023-02-14T19:13:46.653Z,16.70
2023-02-14T19:16:16.426Z,16.20
2023-02-14T19:18:43.368Z,16.10
2023-02-14T19:21:16.445Z,15.70
2023-02-14T19:23:44.079Z,17.20
2023-02-14T19:26:13.653Z,16.70
2023-02-14T19:28:40.961Z,15.60
2023-02-14T19:31:08.721Z,15.60
2023-02-14T19:33:40.900Z,15.80
2023-02-14T19:36:12.400Z,16.30
2023-02-14T19:38:43.989Z,14.90
2023-02-14T19:41:16.327Z,16.40
2023-02-14T19:43:47.700Z,15.60
2023-02-14T19:46:19.900Z,16.50
2023-02-14T19:48:47.611Z,16.70
2023-02-14T19:51:32.342Z,16.30
2023-02-14T19:54:02.460Z,16.40
2023-02-14T19:56:49.546Z,15.50
2023-02-14T19:59:20.415Z,16.20
2023-02-14T20:01:50.429Z,15.80
2023-02-14T20:04:21.852Z,15.50
2023-02-14T20:06:50.954Z,16.60
2023-02-14T20:09:18.317Z,14.10
2023-02-14T20:12:09.174Z,14.60
2023-02-14T20:14:51.270Z,13.90
2023-02-14T20:17:33.423Z,14.10
2023-02-14T20:20:00.405Z,14.00
2023-02-14T20:22:27.474Z,14.20
2023-02-14T20:24:54.893Z,14.90
2023-02-14T20:27:24.376Z,13.80
2023-02-14T20:29:51.508Z,13.60
2023-02-14T20:32:18.359Z,13.00
2023-02-14T20:34:45.159Z,13.70
2023-02-14T20:37:12.281Z,13.80
2023-02-14T20:39:38.997Z,13.70
2023-02-14T20:42:06.939Z,13.70
2023-02-14T20:44:33.624Z,14.40
2023-02-14T20:47:00.524Z,12.00
2023-02-14T20:49:30.074Z,13.10
2023-02-14T20:51:57.099Z,13.80
2023-02-14T20:54:25.993Z,13.10
2023-02-14T20:56:52.948Z,12.20
2023-02-14T20:59:26.851Z,13.60
2023-02-14T21:01:54.909Z,13.80
2023-02-14T21:04:22.237Z,13.60
2023-02-14T21:06:49.186Z,12.40
2023-02-14T21:09:18.014Z,13.20
2023-02-14T21:11:44.854Z,13.60
2023-02-14T21:14:11.829Z,13.90
2023-02-14T21:16:38.732Z,17.60
2023-02-14T21:19:05.667Z,20.00
2023-02-14T21:21:36.451Z,20.80
2023-02-14T21:24:14.589Z,23.00
2023-02-14T21:26:42.633Z,21.70
2023-02-14T21:29:09.929Z,18.50
2023-02-14T21:31:37.161Z,23.60
2023-02-14T21:34:07.216Z,20.50
2023-02-14T21:36:37.729Z,21.40
2023-02-14T21:39:05.972Z,18.10
2023-02-14T21:41:34.529Z,17.90
2023-02-14T21:44:02.727Z,18.80
2023-02-14T21:46:32.918Z,20.10
2023-02-14T21:49:27.975Z,17.70
2023-02-14T21:51:54.579Z,16.20
2023-02-14T21:54:21.864Z,16.40
2023-02-14T21:56:49.444Z,14.50
2023-02-14T21:59:16.273Z,15.40
2023-02-14T22:01:43.149Z,15.70
2023-02-14T22:04:11.810Z,19.80
2023-02-14T22:06:40.333Z,16.30
2023-02-14T22:09:07.337Z,15.30
2023-02-14T22:11:34.798Z,17.50
2023-02-14T22:14:01.561Z,16.50
2023-02-14T22:16:28.813Z,16.40
2023-02-14T22:18:55.588Z,15.10
2023-02-14T22:21:25.104Z,15.50
2023-02-14T22:23:53.144Z,17.50
2023-02-14T22:26:25.339Z,16.50
2023-02-14T22:28:56.168Z,15.20
2023-02-14T22:31:24.788Z,17.10
2023-02-14T22:33:51.955Z,16.90
2023-02-14T22:36:19.111Z,17.20
2023-02-14T22:38:45.863Z,17.30
2023-02-14T22:41:16.918Z,18.00
2023-02-14T22:43:45.392Z,18.30
2023-02-14T22:46:28.948Z,18.20
2023-02-14T22:48:57.071Z,18.90
2023-02-14T22:51:32.661Z,16.20
2023-02-14T22:54:08.896Z,17.50
2023-02-14T22:56:39.209Z,17.70
2023-02-14T22:59:14.505Z,17.30
2023-02-14T23:01:41.514Z,17.90
2023-02-14T23:04:08.495Z,17.80
2023-02-14T23:06:36.227Z,17.90
2023-02-14T23:09:08.116Z,19.00
2023-02-14T23:11:37.306Z,18.40
2023-02-14T23:14:25.397Z,17.90
2023-02-14T23:17:11.268Z,18.80
2023-02-14T23:19:57.074Z,16.80
2023-02-14T23:22:32.084Z,17.70
2023-02-14T23:25:01.304Z,14.90
2023-02-14T23:27:43.002Z,17.60
2023-02-14T23:30:14.516Z,18.00
2023-02-14T23:32:41.659Z,18.00
2023-02-14T23:35:08.556Z,15.80
2023-02-14T23:37:35.680Z,16.90
2023-02-14T23:40:03.411Z,17.60
2023-02-14T23:42:30.149Z,16.50
2023-02-14T23:45:17.294Z,17.20
2023-02-14T23:47:44.116Z,17.00
2023-02-14T23:50:12.498Z,16.90
2023-02-14T23:53:01.453Z,17.40
2023-02-14T23:55:28.545Z,17.20
2023-02-14T23:57:57.027Z,16.40
